createdAt,value
2023-05-20T00:00:22.156Z,6.03
2023-05-20T00:02:49.242Z,6.50
2023-05-20T00:05:16.674Z,6.27
2023-05-20T00:07:43.762Z,6.17
2023-05-20T00:10:11.424Z,6.20
2023-05-20T00:12:39.141Z,6.33
2023-05-20T00:15:07.077Z,7.10
2023-05-20T00:17:34.146Z,5.87
2023-05-20T00:20:01.329Z,7.00
2023-05-20T00:22:28.377Z,6.80
2023-05-20T00:24:55.541Z,6.17
2023-05-20T00:27:22.587Z,6.23
2023-05-20T00:29:49.823Z,6.37
2023-05-20T00:32:16.943Z,6.77
2023-05-20T00:34:44.525Z,6.67
2023-05-20T00:37:11.593Z,6.40
2023-05-20T00:39:38.697Z,7.27
2023-05-20T00:42:06.134Z,6.00
2023-05-20T00:44:33.450Z,5.67
2023-05-20T00:47:01.782Z,6.60
2023-05-20T00:49:28.974Z,6.33
2023-05-20T00:51:56.097Z,6.10
2023-05-20T00:54:23.284Z,6.33
2023-05-20T00:56:50.887Z,6.80
2023-05-20T00:59:18.052Z,6.13
2023-05-20T01:01:45.311Z,7.00
2023-05-20T01:04:12.706Z,6.70
2023-05-20T01:06:39.768Z,6.30
2023-05-20T01:09:07.011Z,6.53
2023-05-20T01:11:49.476Z,6.00
2023-05-20T01:14:19.126Z,6.57
2023-05-20T01:16:48.245Z,6.90
2023-05-20T01:19:30.374Z,6.87
2023-05-20T01:21:59.073Z,6.33
2023-05-20T01:24:26.567Z,7.10
2023-05-20T01:26:54.426Z,6.77
2023-05-20T01:29:22.422Z,6.83
2023-05-20T01:31:50.811Z,6.50
2023-05-20T01:34:18.742Z,7.07
2023-05-20T01:36:46.990Z,6.83
2023-05-20T01:39:14.627Z,7.20
2023-05-20T01:41:42.992Z,7.10
2023-05-20T01:44:10.194Z,6.80
2023-05-20T01:46:37.403Z,6.67
2023-05-20T01:49:04.555Z,6.53
2023-05-20T01:51:33.705Z,7.10
2023-05-20T01:54:00.952Z,7.00
2023-05-20T01:56:28.225Z,6.60
2023-05-20T01:58:55.444Z,6.57
2023-05-20T02:01:22.661Z,6.97
2023-05-20T02:03:49.785Z,7.03
2023-05-20T02:06:17.379Z,6.77
2023-05-20T02:08:44.436Z,6.80
2023-05-20T02:11:11.673Z,7.23
2023-05-20T02:13:39.458Z,7.53
2023-05-20T02:16:07.127Z,7.13
2023-05-20T02:18:35.526Z,7.30
2023-05-20T02:21:06.046Z,7.20
2023-05-20T02:23:33.258Z,6.60
2023-05-20T02:26:00.539Z,7.20
2023-05-20T02:28:27.713Z,7.20
2023-05-20T02:30:55.650Z,6.87
2023-05-20T02:33:23.621Z,7.33
2023-05-20T02:35:50.809Z,6.67
2023-05-20T02:38:17.916Z,8.10
2023-05-20T02:40:45.429Z,6.97
2023-05-20T02:43:12.504Z,7.10
2023-05-20T02:45:40.640Z,7.17
2023-05-20T02:48:07.972Z,7.57
2023-05-20T02:50:40.240Z,7.00
2023-05-20T02:53:07.774Z,6.53
2023-05-20T02:55:36.146Z,6.07
2023-05-20T02:58:03.985Z,5.93
2023-05-20T03:00:40.999Z,6.90
2023-05-20T03:03:10.118Z,6.40
2023-05-20T03:05:38.214Z,6.50
2023-05-20T03:08:10.694Z,6.23
2023-05-20T03:10:40.954Z,5.87
2023-05-20T03:13:10.104Z,6.87
2023-05-20T03:15:38.932Z,6.87
2023-05-20T03:18:07.282Z,7.13
2023-05-20T03:20:38.349Z,7.20
2023-05-20T03:23:07.553Z,6.10
2023-05-20T03:25:37.354Z,6.33
2023-05-20T03:28:06.641Z,6.50
2023-05-20T03:30:36.010Z,6.80
2023-05-20T03:33:03.693Z,6.53
2023-05-20T03:35:31.088Z,6.20
2023-05-20T03:37:59.685Z,6.57
2023-05-20T03:40:27.474Z,5.93
2023-05-20T03:42:55.052Z,5.97
2023-05-20T03:45:22.685Z,6.47
2023-05-20T03:47:59.300Z,5.97
2023-05-20T03:50:26.620Z,5.67
2023-05-20T03:52:53.704Z,6.40
2023-05-20T03:55:23.326Z,5.50
2023-05-20T03:57:50.527Z,5.90
2023-05-20T04:00:18.836Z,5.60
2023-05-20T04:02:45.878Z,5.63
2023-05-20T04:05:16.670Z,6.03
2023-05-20T04:07:43.932Z,6.33
2023-05-20T04:10:12.870Z,5.53
2023-05-20T04:12:40.158Z,6.00
2023-05-20T04:15:08.514Z,5.73
2023-05-20T04:17:48.665Z,5.80
2023-05-20T04:20:16.492Z,5.97
2023-05-20T04:22:43.570Z,5.73
2023-05-20T04:25:11.280Z,5.53
2023-05-20T04:27:39.768Z,5.40
2023-05-20T04:30:08.010Z,6.23
2023-05-20T04:32:39.464Z,5.60
2023-05-20T04:35:12.199Z,5.20
2023-05-20T04:37:47.960Z,6.07
2023-05-20T04:40:15.368Z,6.00
2023-05-20T04:42:43.678Z,4.97
2023-05-20T04:45:12.516Z,5.40
2023-05-20T04:47:41.951Z,5.60
2023-05-20T04:50:16.461Z,5.40
2023-05-20T04:52:45.475Z,5.10
2023-05-20T04:55:13.042Z,5.53
2023-05-20T04:57:42.017Z,5.40
2023-05-20T05:00:10.958Z,5.67
2023-05-20T05:02:38.801Z,5.47
2023-05-20T05:05:06.806Z,5.53
2023-05-20T05:07:34.065Z,5.43
2023-05-20T05:10:01.435Z,7.00
2023-05-20T05:12:31.055Z,7.37
2023-05-20T05:14:59.334Z,6.83
2023-05-20T05:17:28.840Z,8.20
2023-05-20T05:19:57.416Z,6.93
2023-05-20T05:22:26.046Z,6.77
2023-05-20T05:24:53.326Z,7.27
2023-05-20T05:27:23.034Z,7.50
2023-05-20T05:29:50.488Z,7.00
2023-05-20T05:32:18.470Z,7.30
2023-05-20T05:34:45.829Z,5.93
2023-05-20T05:37:12.989Z,6.33
2023-05-20T05:39:40.753Z,5.50
2023-05-20T05:42:07.860Z,4.80
2023-05-20T05:44:36.103Z,4.73
2023-05-20T05:47:06.789Z,4.97
2023-05-20T05:49:34.454Z,5.30
2023-05-20T05:52:01.580Z,5.47
2023-05-20T05:54:29.517Z,4.93
2023-05-20T05:56:56.973Z,5.40
2023-05-20T05:59:25.896Z,5.37
2023-05-20T06:01:53.579Z,5.80
2023-05-20T06:04:20.949Z,5.47
2023-05-20T06:06:49.510Z,5.00
2023-05-20T06:09:16.887Z,5.13
2023-05-20T06:11:44.819Z,4.97
2023-05-20T06:14:11.932Z,5.50
2023-05-20T06:16:39.649Z,5.17
2023-05-20T06:19:09.479Z,5.00
2023-05-20T06:21:36.990Z,5.27
2023-05-20T06:24:04.880Z,5.07
2023-05-20T06:26:32.922Z,4.83
2023-05-20T06:29:00.335Z,4.87
2023-05-20T06:31:27.772Z,5.30
2023-05-20T06:33:55.321Z,5.27
2023-05-20T06:36:22.516Z,5.70
2023-05-20T06:38:49.645Z,5.27
2023-05-20T06:41:17.328Z,5.23
2023-05-20T06:43:44.957Z,5.10
2023-05-20T06:46:30.796Z,5.27
2023-05-20T06:49:05.354Z,6.40
2023-05-20T06:51:32.665Z,5.03
2023-05-20T06:54:00.654Z,5.27
2023-05-20T06:56:27.842Z,6.23
2023-05-20T06:58:55.889Z,5.83
2023-05-20T07:01:23.273Z,5.43
2023-05-20T07:03:50.638Z,5.97
2023-05-20T07:06:18.197Z,6.00
2023-05-20T07:08:45.506Z,5.07
2023-05-20T07:11:13.331Z,5.53
2023-05-20T07:13:40.516Z,5.67
2023-05-20T07:16:07.758Z,5.20
2023-05-20T07:18:37.146Z,6.03
2023-05-20T07:21:04.307Z,5.43
2023-05-20T07:23:42.979Z,6.03
2023-05-20T07:26:10.245Z,5.77
2023-05-20T07:28:38.811Z,5.90
2023-05-20T07:31:05.973Z,6.47
2023-05-20T07:33:37.040Z,5.53
2023-05-20T07:36:04.239Z,5.67
2023-05-20T07:38:32.511Z,5.33
2023-05-20T07:41:02.271Z,5.43
2023-05-20T07:43:29.329Z,6.30
2023-05-20T07:45:57.680Z,5.87
2023-05-20T07:48:24.931Z,6.30
2023-05-20T07:50:52.551Z,6.77
2023-05-20T07:53:20.124Z,6.07
2023-05-20T07:55:47.580Z,6.23
2023-05-20T07:58:14.939Z,6.33
2023-05-20T08:00:42.113Z,6.17
2023-05-20T08:03:09.407Z,5.93
2023-05-20T08:05:50.590Z,6.23
2023-05-20T08:08:18.203Z,6.63
2023-05-20T08:10:53.073Z,7.13
2023-05-20T08:13:22.976Z,6.33
2023-05-20T08:15:50.296Z,7.80
2023-05-20T08:18:17.355Z,8.10
2023-05-20T08:20:44.463Z,7.67
2023-05-20T08:23:11.580Z,8.90
2023-05-20T08:25:39.489Z,9.17
2023-05-20T08:28:08.985Z,8.77
2023-05-20T08:30:38.113Z,8.17
2023-05-20T08:33:05.380Z,8.50
2023-05-20T08:35:32.884Z,8.63
2023-05-20T08:38:01.468Z,8.27
2023-05-20T08:40:29.318Z,8.67
2023-05-20T08:42:57.800Z,9.17
2023-05-20T08:45:28.703Z,8.90
2023-05-20T08:48:01.686Z,8.83
2023-05-20T08:50:29.034Z,8.50
2023-05-20T08:52:56.554Z,8.57
2023-05-20T08:55:38.210Z,8.50
2023-05-20T08:58:05.362Z,8.77
2023-05-20T09:00:32.489Z,9.43
2023-05-20T09:03:01.159Z,9.10
2023-05-20T09:05:29.320Z,7.23
2023-05-20T09:08:10.620Z,8.77
2023-05-20T09:10:39.750Z,8.53
2023-05-20T09:13:07.765Z,8.90
2023-05-20T09:15:36.381Z,8.57
2023-05-20T09:18:05.877Z,8.70
2023-05-20T09:20:37.280Z,9.00
2023-05-20T09:23:07.277Z,9.27
2023-05-20T09:25:35.334Z,9.47
2023-05-20T09:28:05.006Z,9.37
2023-05-20T09:30:32.805Z,9.03
2023-05-20T09:33:01.531Z,8.13
2023-05-20T09:35:28.681Z,8.13
2023-05-20T09:37:58.072Z,9.43
2023-05-20T09:40:27.962Z,8.97
2023-05-20T09:43:03.288Z,7.53
2023-05-20T09:45:30.852Z,8.77
2023-05-20T09:48:00.119Z,8.43
2023-05-20T09:50:28.908Z,9.10
2023-05-20T09:52:56.316Z,7.97
2023-05-20T09:55:25.080Z,8.90
2023-05-20T09:57:54.149Z,8.83
2023-05-20T10:00:21.784Z,7.57
2023-05-20T10:02:51.636Z,7.93
2023-05-20T10:05:37.516Z,8.20
2023-05-20T10:08:50.743Z,7.50
2023-05-20T10:11:27.839Z,8.63
2023-05-20T10:14:44.565Z,8.10
2023-05-20T10:17:27.510Z,6.87
2023-05-20T10:20:01.530Z,7.37
2023-05-20T10:22:29.861Z,7.17
2023-05-20T10:25:12.982Z,7.40
2023-05-20T10:27:44.681Z,7.57
2023-05-20T10:30:22.216Z,7.20
2023-05-20T10:32:53.642Z,7.20
2023-05-20T10:35:27.731Z,7.03
2023-05-20T10:38:06.478Z,6.50
2023-05-20T10:40:33.810Z,8.07
2023-05-20T10:43:13.031Z,7.17
2023-05-20T10:45:50.948Z,6.50
2023-05-20T10:48:28.669Z,7.13
2023-05-20T10:50:57.412Z,7.70
2023-05-20T10:53:33.582Z,6.63
2023-05-20T10:56:02.594Z,6.00
2023-05-20T10:58:37.628Z,7.77
2023-05-20T11:01:05.068Z,6.80
2023-05-20T11:03:35.033Z,6.13
2023-05-20T11:06:02.341Z,6.33
2023-05-20T11:08:33.500Z,5.97
2023-05-20T11:11:00.893Z,5.93
2023-05-20T11:13:28.153Z,6.60
2023-05-20T11:15:55.694Z,5.90
2023-05-20T11:18:22.814Z,7.20
2023-05-20T11:20:50.226Z,6.10
2023-05-20T11:23:17.466Z,6.13
2023-05-20T11:25:44.590Z,7.10
2023-05-20T11:28:14.911Z,6.50
2023-05-20T11:30:45.356Z,6.33
2023-05-20T11:33:13.709Z,6.20
2023-05-20T11:35:51.950Z,6.13
2023-05-20T11:38:20.731Z,5.97
2023-05-20T11:40:54.203Z,6.10
2023-05-20T11:43:23.200Z,5.80
2023-05-20T11:45:59.873Z,6.07
2023-05-20T11:48:27.624Z,6.03
2023-05-20T11:50:56.494Z,5.77
2023-05-20T11:53:24.699Z,6.50
2023-05-20T11:55:57.448Z,5.73
2023-05-20T11:58:34.352Z,6.60
2023-05-20T12:01:13.283Z,5.93
2023-05-20T12:03:48.929Z,5.70
2023-05-20T12:06:17.756Z,5.77
2023-05-20T12:08:44.896Z,5.80
2023-05-20T12:11:11.942Z,5.77
2023-05-20T12:13:39.501Z,5.83
2023-05-20T12:16:07.137Z,5.97
2023-05-20T12:18:34.561Z,6.13
2023-05-20T12:21:01.709Z,6.67
2023-05-20T12:23:30.846Z,5.50
2023-05-20T12:25:57.901Z,5.83
2023-05-20T12:28:25.005Z,5.40
2023-05-20T12:30:52.141Z,5.83
2023-05-20T12:33:20.741Z,5.57
2023-05-20T12:35:47.890Z,5.73
2023-05-20T12:38:15.202Z,5.00
2023-05-20T12:40:42.262Z,6.37
2023-05-20T12:43:09.404Z,6.77
2023-05-20T12:45:36.505Z,5.80
2023-05-20T12:48:04.449Z,6.10
2023-05-20T12:50:31.605Z,6.27
2023-05-20T12:52:58.852Z,6.37
2023-05-20T12:55:25.913Z,5.07
2023-05-20T12:57:54.478Z,5.17
2023-05-20T13:00:21.602Z,5.60
2023-05-20T13:02:48.829Z,6.27
2023-05-20T13:05:16.061Z,5.47
2023-05-20T13:07:43.187Z,5.37
2023-05-20T13:10:11.426Z,5.33
2023-05-20T13:12:38.769Z,5.20
2023-05-20T13:15:07.361Z,4.60
2023-05-20T13:17:34.706Z,5.40
2023-05-20T13:20:01.838Z,5.27
2023-05-20T13:22:28.959Z,5.07
2023-05-20T13:24:56.184Z,5.40
2023-05-20T13:27:23.375Z,4.83
2023-05-20T13:29:50.622Z,6.07
2023-05-20T13:32:17.883Z,5.33
2023-05-20T13:34:45.185Z,5.63
2023-05-20T13:37:12.479Z,5.33
2023-05-20T13:39:39.537Z,5.57
2023-05-20T13:42:07.020Z,6.00
2023-05-20T13:44:34.053Z,5.60
2023-05-20T13:47:01.287Z,6.07
2023-05-20T13:49:28.371Z,6.23
2023-05-20T13:51:55.693Z,5.70
2023-05-20T13:54:22.738Z,6.20
2023-05-20T13:56:54.463Z,6.20
2023-05-20T13:59:21.734Z,5.13
2023-05-20T14:01:49.059Z,5.40
2023-05-20T14:04:16.314Z,5.93
2023-05-20T14:06:43.522Z,4.93
2023-05-20T14:09:11.029Z,5.57
2023-05-20T14:11:38.132Z,5.63
2023-05-20T14:14:05.523Z,4.80
2023-05-20T14:16:33.126Z,5.33
2023-05-20T14:19:00.434Z,5.10
2023-05-20T14:21:27.780Z,4.97
2023-05-20T14:23:54.972Z,5.53
2023-05-20T14:26:22.389Z,5.67
2023-05-20T14:28:49.545Z,5.30
2023-05-20T14:31:16.763Z,5.43
2023-05-20T14:33:43.977Z,5.83
2023-05-20T14:36:11.695Z,5.03
2023-05-20T14:38:39.236Z,5.60
2023-05-20T14:41:06.319Z,5.30
2023-05-20T14:43:33.451Z,6.00
2023-05-20T14:46:00.881Z,5.13
2023-05-20T14:48:28.078Z,4.73
2023-05-20T14:50:55.177Z,4.33
2023-05-20T14:53:22.880Z,4.77
2023-05-20T14:55:49.964Z,5.27
2023-05-20T14:58:17.303Z,5.33
2023-05-20T15:00:44.383Z,5.30
2023-05-20T15:03:11.906Z,5.00
2023-05-20T15:05:39.250Z,4.60
2023-05-20T15:08:06.441Z,5.27
2023-05-20T15:10:34.109Z,5.27
2023-05-20T15:13:01.794Z,5.50
2023-05-20T15:15:29.288Z,13.97
2023-05-20T15:17:56.724Z,18.93
2023-05-20T15:20:23.860Z,5.73
2023-05-20T15:22:51.087Z,4.97
2023-05-20T15:25:18.191Z,4.83
2023-05-20T15:27:45.474Z,5.10
2023-05-20T15:30:13.606Z,5.77
2023-05-20T15:32:41.440Z,5.50
2023-05-20T15:35:09.439Z,5.27
2023-05-20T15:37:36.548Z,4.80
2023-05-20T15:40:04.665Z,5.10
2023-05-20T15:42:31.966Z,5.10
2023-05-20T15:44:59.160Z,5.10
2023-05-20T15:47:26.252Z,5.00
2023-05-20T15:49:54.613Z,4.90
2023-05-20T15:52:21.772Z,5.00
2023-05-20T15:54:49.010Z,5.30
2023-05-20T15:57:16.184Z,4.97
2023-05-20T15:59:43.278Z,5.23
2023-05-20T16:02:10.604Z,4.63
2023-05-20T16:04:37.699Z,5.20
2023-05-20T16:07:05.031Z,4.47
2023-05-20T16:09:32.100Z,6.70
2023-05-20T16:11:59.181Z,5.43
2023-05-20T16:14:26.302Z,4.77
2023-05-20T16:16:53.445Z,5.03
2023-05-20T16:19:21.813Z,5.17
2023-05-20T16:21:48.871Z,5.00
2023-05-20T16:24:16.077Z,6.00
2023-05-20T16:26:43.264Z,5.70
2023-05-20T16:29:10.596Z,5.50
2023-05-20T16:31:37.740Z,6.17
2023-05-20T16:34:04.971Z,5.67
2023-05-20T16:36:32.015Z,6.43
2023-05-20T16:38:59.284Z,7.70
2023-05-20T16:41:26.674Z,6.93
2023-05-20T16:43:53.965Z,5.13
2023-05-20T16:46:21.639Z,5.30
2023-05-20T16:48:49.068Z,5.00
2023-05-20T16:51:16.431Z,5.00
2023-05-20T16:53:43.576Z,5.27
2023-05-20T16:56:10.647Z,5.33
2023-05-20T16:58:37.773Z,5.17
2023-05-20T17:01:04.879Z,5.10
2023-05-20T17:03:32.345Z,5.33
2023-05-20T17:05:59.369Z,5.53
2023-05-20T17:08:26.615Z,5.37
2023-05-20T17:10:54.396Z,5.40
2023-05-20T17:13:21.830Z,5.03
2023-05-20T17:15:48.926Z,5.60
2023-05-20T17:18:16.084Z,5.40
2023-05-20T17:20:43.333Z,5.20
2023-05-20T17:23:10.734Z,5.07
2023-05-20T17:25:37.894Z,5.23
2023-05-20T17:28:05.103Z,4.73
2023-05-20T17:30:32.438Z,5.43
2023-05-20T17:32:59.727Z,6.00
2023-05-20T17:35:27.827Z,5.50
2023-05-20T17:37:55.196Z,6.07
2023-05-20T17:40:22.483Z,5.50
2023-05-20T17:42:49.573Z,5.40
2023-05-20T17:45:16.762Z,5.50
2023-05-20T17:47:44.265Z,5.47
2023-05-20T17:50:11.702Z,5.43
2023-05-20T17:52:38.779Z,5.17
2023-05-20T17:55:06.792Z,5.67
2023-05-20T17:57:34.260Z,4.90
2023-05-20T18:00:02.312Z,5.80
2023-05-20T18:02:32.364Z,5.40
2023-05-20T18:04:59.611Z,5.47
2023-05-20T18:07:27.137Z,5.27
2023-05-20T18:09:54.599Z,5.57
2023-05-20T18:12:21.849Z,5.20
2023-05-20T18:14:49.062Z,5.40
2023-05-20T18:17:16.750Z,5.83
2023-05-20T18:19:43.746Z,6.00
2023-05-20T18:22:10.979Z,5.70
2023-05-20T18:24:38.047Z,5.60
2023-05-20T18:27:05.653Z,6.13
2023-05-20T18:29:32.799Z,5.60
2023-05-20T18:32:00.218Z,5.70
2023-05-20T18:34:27.609Z,6.67
2023-05-20T18:36:55.091Z,7.10
2023-05-20T18:39:22.436Z,7.07
2023-05-20T18:41:50.010Z,7.70
2023-05-20T18:44:17.797Z,8.07
2023-05-20T18:46:45.588Z,9.50
2023-05-20T18:49:13.071Z,10.00
2023-05-20T18:51:40.852Z,10.13
2023-05-20T18:54:08.366Z,11.30
2023-05-20T18:56:35.800Z,11.27
2023-05-20T18:59:02.846Z,11.33
2023-05-20T19:01:30.258Z,13.67
2023-05-20T19:03:57.472Z,15.20
2023-05-20T19:06:24.614Z,14.53
2023-05-20T19:08:51.887Z,14.63
2023-05-20T19:11:19.161Z,14.27
2023-05-20T19:13:46.372Z,15.03
2023-05-20T19:16:13.667Z,17.20
2023-05-20T19:18:41.015Z,15.87
2023-05-20T19:21:08.285Z,15.80
2023-05-20T19:23:35.389Z,16.97
2023-05-20T19:26:02.928Z,15.87
2023-05-20T19:28:30.062Z,16.17
2023-05-20T19:30:57.207Z,15.37
2023-05-20T19:33:24.423Z,16.20
2023-05-20T19:35:51.568Z,16.67
2023-05-20T19:38:18.813Z,18.97
2023-05-20T19:40:47.018Z,16.40
2023-05-20T19:43:14.171Z,18.10
2023-05-20T19:45:41.519Z,16.60
2023-05-20T19:48:09.887Z,16.00
2023-05-20T19:50:37.606Z,18.40
2023-05-20T19:53:07.393Z,16.90
2023-05-20T19:55:38.711Z,19.27
2023-05-20T19:58:06.143Z,20.77
2023-05-20T20:00:33.428Z,19.57
2023-05-20T20:03:03.269Z,20.77
2023-05-20T20:05:30.765Z,19.77
2023-05-20T20:07:57.926Z,22.17
2023-05-20T20:10:24.982Z,21.10
2023-05-20T20:12:52.238Z,21.07
2023-05-20T20:15:20.499Z,21.50
2023-05-20T20:17:52.162Z,21.70
2023-05-20T20:20:19.768Z,23.53
2023-05-20T20:22:47.063Z,23.03
2023-05-20T20:25:14.185Z,22.70
2023-05-20T20:27:44.056Z,21.50
2023-05-20T20:30:13.577Z,21.60
2023-05-20T20:32:41.854Z,21.63
2023-05-20T20:35:09.656Z,22.17
2023-05-20T20:37:38.386Z,23.93
2023-05-20T20:40:08.128Z,24.07
2023-05-20T20:42:35.228Z,23.43
2023-05-20T20:45:02.425Z,23.13
2023-05-20T20:47:29.736Z,24.67
2023-05-20T20:49:57.134Z,24.90
2023-05-20T20:52:24.210Z,24.53
2023-05-20T20:54:51.720Z,24.93
2023-05-20T20:57:18.937Z,26.57
2023-05-20T20:59:48.105Z,28.10
2023-05-20T21:02:15.576Z,25.27
2023-05-20T21:04:43.633Z,25.50
2023-05-20T21:07:12.119Z,25.73
2023-05-20T21:09:39.226Z,26.43
2023-05-20T21:12:07.002Z,26.67
2023-05-20T21:14:34.139Z,26.00
2023-05-20T21:17:01.322Z,27.33
2023-05-20T21:19:29.945Z,27.10
2023-05-20T21:21:57.432Z,25.83
2023-05-20T21:24:24.593Z,28.50
2023-05-20T21:26:51.621Z,26.23
2023-05-20T21:29:18.726Z,25.20
2023-05-20T21:31:45.767Z,25.23
2023-05-20T21:34:12.948Z,27.33
2023-05-20T21:36:40.067Z,26.43
2023-05-20T21:39:07.206Z,26.13
2023-05-20T21:41:34.280Z,26.87
2023-05-20T21:44:01.438Z,29.27
2023-05-20T21:46:28.519Z,27.80
2023-05-20T21:48:55.845Z,28.07
2023-05-20T21:51:22.871Z,27.97
2023-05-20T21:53:49.964Z,28.33
2023-05-20T21:56:17.141Z,29.93
2023-05-20T21:58:44.270Z,28.17
2023-05-20T22:01:11.340Z,29.97
2023-05-20T22:03:40.238Z,30.53
2023-05-20T22:06:07.447Z,31.73
2023-05-20T22:08:34.498Z,29.83
2023-05-20T22:11:05.571Z,29.50
2023-05-20T22:13:36.266Z,28.20
2023-05-20T22:16:05.103Z,29.57
2023-05-20T22:18:32.695Z,28.23
2023-05-20T22:21:01.112Z,30.30
2023-05-20T22:23:29.240Z,28.57
2023-05-20T22:25:56.726Z,31.57
2023-05-20T22:28:23.926Z,32.00
2023-05-20T22:30:51.656Z,29.30
2023-05-20T22:33:18.892Z,29.40
2023-05-20T22:35:46.290Z,27.97
2023-05-20T22:38:13.337Z,29.27
2023-05-20T22:40:40.656Z,26.73
2023-05-20T22:43:07.798Z,28.97
2023-05-20T22:45:35.419Z,27.63
2023-05-20T22:48:03.811Z,28.13
2023-05-20T22:50:34.295Z,29.23
2023-05-20T22:53:04.716Z,29.67
2023-05-20T22:55:31.812Z,28.20
2023-05-20T22:57:58.921Z,26.80
2023-05-20T23:00:26.188Z,26.20
2023-05-20T23:02:53.281Z,26.53
2023-05-20T23:05:21.197Z,25.60
2023-05-20T23:07:48.276Z,22.90
2023-05-20T23:10:15.868Z,24.83
2023-05-20T23:12:42.924Z,24.77
2023-05-20T23:15:10.635Z,27.57
2023-05-20T23:17:39.555Z,30.00
2023-05-20T23:20:14.351Z,29.90
2023-05-20T23:22:41.748Z,23.73
2023-05-20T23:25:09.578Z,26.10
2023-05-20T23:27:37.065Z,25.40
2023-05-20T23:30:04.713Z,23.80
2023-05-20T23:32:31.831Z,23.67
2023-05-20T23:35:02.780Z,23.90
2023-05-20T23:37:30.024Z,24.13
2023-05-20T23:39:57.145Z,22.53
2023-05-20T23:42:24.337Z,22.83
2023-05-20T23:44:51.435Z,22.30
2023-05-20T23:47:18.801Z,25.27
2023-05-20T23:49:49.164Z,25.03
2023-05-20T23:52:16.678Z,26.97
2023-05-20T23:54:43.691Z,26.07
2023-05-20T23:57:11.821Z,25.97
2023-05-20T23:59:38.859Z,26.10
